Time;durP1;ratioP1;P1;durP2;ratioP2;P2;SDS_P1;SDS_P2;PMS_P1;PMS_P2;Temp;Humidity;BMP_temperature;BMP_pressure;BME280_temperature;BME280_humidity;BME280_pressure;Samples;Min_cycle;Max_cycle;Signal;HPM_P1;HPM_P2
2023/09/26 00:01:46;;;;;;;11.35;10.85;;;;;;;;;;5102140;27;20019;-61
2023/09/26 00:04:11;;;;;;;11.07;10.57;;;;;;;;;;5105099;28;20036;-61
2023/09/26 00:06:37;;;;;;;11.30;10.80;;;;;;;;;;5101017;27;21234;-61
2023/09/26 00:09:05;;;;;;;11.50;11.00;;;;;;;;;;5102676;28;20055;-62
2023/09/26 00:11:31;;;;;;;11.50;11.00;;;;;;;;;;5106748;27;20102;-60
2023/09/26 00:13:56;;;;;;;11.52;11.02;;;;;;;;;;5108807;27;20145;-61
2023/09/26 00:16:21;;;;;;;11.55;11.05;;;;;;;;;;5102880;28;20391;-61
2023/09/26 00:18:47;;;;;;;11.38;10.88;;;;;;;;;;5106318;28;20018;-62
2023/09/26 00:21:12;;;;;;;11.35;10.85;;;;;;;;;;5105889;27;20023;-61
2023/09/26 00:23:38;;;;;;;11.77;11.25;;;;;;;;;;5111262;27;20042;-63
2023/09/26 00:26:04;;;;;;;11.32;10.82;;;;;;;;;;5103702;27;20020;-63
2023/09/26 00:28:30;;;;;;;11.40;10.90;;;;;;;;;;5102090;27;20024;-63
2023/09/26 00:31:03;;;;;;;11.30;10.80;;;;;;;;;;5097820;28;20051;-63
2023/09/26 00:33:28;;;;;;;11.27;10.77;;;;;;;;;;5101042;28;20020;-62
2023/09/26 00:35:54;;;;;;;11.88;11.27;;;;;;;;;;5098489;28;20511;-62
2023/09/26 00:38:19;;;;;;;11.32;10.82;;;;;;;;;;5104246;27;20471;-62
2023/09/26 00:40:44;;;;;;;12.10;11.50;;;;;;;;;;5094201;28;20024;-62
2023/09/26 00:43:19;;;;;;;10.90;10.40;;;;;;;;;;5101615;28;20020;-61
2023/09/26 00:45:45;;;;;;;11.05;10.55;;;;;;;;;;5080324;28;20530;-62
2023/09/26 00:48:10;;;;;;;11.15;10.65;;;;;;;;;;5101708;28;20027;-63
2023/09/26 00:50:35;;;;;;;11.05;10.55;;;;;;;;;;5098742;28;20107;-63
2023/09/26 00:53:00;;;;;;;11.30;10.80;;;;;;;;;;5097162;28;20016;-63
2023/09/26 00:55:26;;;;;;;11.48;10.98;;;;;;;;;;5095631;28;20088;-62
2023/09/26 00:57:52;;;;;;;11.73;11.23;;;;;;;;;;5101033;28;20442;-61
2023/09/26 01:00:19;;;;;;;11.85;11.25;;;;;;;;;;5099931;28;20575;-62
2023/09/26 01:02:45;;;;;;;11.10;10.60;;;;;;;;;;5105567;28;20027;-62
2023/09/26 01:05:11;;;;;;;11.05;10.55;;;;;;;;;;5099606;28;20047;-61
2023/09/26 01:07:37;;;;;;;11.27;10.77;;;;;;;;;;5104167;28;20908;-63
2023/09/26 01:10:11;;;;;;;11.38;10.88;;;;;;;;;;5110189;27;20022;-62
2023/09/26 01:12:38;;;;;;;10.93;10.43;;;;;;;;;;5118037;27;20383;-63
2023/09/26 01:15:05;;;;;;;11.80;11.23;;;;;;;;;;5105319;28;20015;-62
2023/09/26 01:17:31;;;;;;;10.77;10.27;;;;;;;;;;5108534;28;20055;-62
2023/09/26 01:19:56;;;;;;;11.35;10.85;;;;;;;;;;5108178;27;20055;-62
2023/09/26 01:22:24;;;;;;;11.30;10.80;;;;;;;;;;5108714;27;20027;-62
2023/09/26 01:24:50;;;;;;;11.30;10.80;;;;;;;;;;5116559;27;20016;-62
2023/09/26 01:27:15;;;;;;;11.43;10.93;;;;;;;;;;5111293;27;20049;-62
2023/09/26 01:29:41;;;;;;;11.02;10.52;;;;;;;;;;5093712;28;20073;-62
2023/09/26 01:32:06;;;;;;;11.07;10.57;;;;;;;;;;5113105;27;20094;-62
2023/09/26 01:34:31;;;;;;;10.57;10.07;;;;;;;;;;5104826;28;20015;-63
2023/09/26 01:36:57;;;;;;;11.15;10.65;;;;;;;;;;5108033;27;20020;-62
2023/09/26 01:39:22;;;;;;;10.90;10.40;;;;;;;;;;5110081;28;20024;-62
2023/09/26 01:41:47;;;;;;;11.10;10.60;;;;;;;;;;5090941;27;20026;-62
2023/09/26 01:44:12;;;;;;;11.52;11.02;;;;;;;;;;5105560;28;20019;-63
2023/09/26 01:46:38;;;;;;;11.20;10.70;;;;;;;;;;5108153;27;20027;-62
2023/09/26 01:49:03;;;;;;;12.15;11.55;;;;;;;;;;5109814;27;20031;-62
2023/09/26 01:51:29;;;;;;;11.50;11.00;;;;;;;;;;5104451;28;20520;-62
2023/09/26 01:53:54;;;;;;;11.50;11.00;;;;;;;;;;5105975;28;20019;-62
2023/09/26 01:56:20;;;;;;;11.38;10.88;;;;;;;;;;5107785;27;20020;-61
2023/09/26 01:58:45;;;;;;;11.07;10.57;;;;;;;;;;5108440;27;20111;-61
2023/09/26 02:01:10;;;;;;;10.50;10.00;;;;;;;;;;5105745;27;20027;-61
2023/09/26 02:03:36;;;;;;;10.75;10.25;;;;;;;;;;5107261;27;20132;-62
2023/09/26 02:06:02;;;;;;;11.00;10.50;;;;;;;;;;5103508;27;20061;-62
2023/09/26 02:08:27;;;;;;;10.90;10.40;;;;;;;;;;5105174;27;20099;-63
2023/09/26 02:10:53;;;;;;;11.05;10.55;;;;;;;;;;5111522;27;20059;-61
2023/09/26 02:13:18;;;;;;;11.18;10.68;;;;;;;;;;5084972;28;20103;-62
2023/09/26 02:15:43;;;;;;;11.60;11.10;;;;;;;;;;5104251;27;20019;-63
2023/09/26 02:18:09;;;;;;;11.75;11.20;;;;;;;;;;5106717;27;20032;-62
2023/09/26 02:20:34;;;;;;;11.00;10.50;;;;;;;;;;5104130;27;20032;-63
2023/09/26 02:22:59;;;;;;;10.77;10.27;;;;;;;;;;5112036;27;20028;-62
2023/09/26 02:25:25;;;;;;;11.32;10.82;;;;;;;;;;5106180;27;20035;-62
2023/09/26 02:27:51;;;;;;;10.68;10.18;;;;;;;;;;5108298;27;20015;-63
2023/09/26 02:30:20;;;;;;;11.23;10.73;;;;;;;;;;5103948;28;20023;-61
2023/09/26 02:32:45;;;;;;;11.43;10.93;;;;;;;;;;5106763;27;20030;-62
2023/09/26 02:35:12;;;;;;;11.00;10.50;;;;;;;;;;5105270;27;20107;-62
2023/09/26 02:37:38;;;;;;;11.20;10.70;;;;;;;;;;5105168;28;20566;-62
2023/09/26 02:40:05;;;;;;;11.23;10.73;;;;;;;;;;5106787;28;20022;-62
2023/09/26 02:42:31;;;;;;;11.55;11.05;;;;;;;;;;5106147;27;20025;-62
2023/09/26 02:44:57;;;;;;;10.98;10.48;;;;;;;;;;5107319;27;20035;-63
2023/09/26 02:47:22;;;;;;;11.25;10.75;;;;;;;;;;5109832;27;20073;-62
2023/09/26 02:49:47;;;;;;;11.70;11.10;;;;;;;;;;5109620;27;20015;-63
2023/09/26 02:52:13;;;;;;;10.73;10.23;;;;;;;;;;5100481;27;20132;-63
2023/09/26 02:54:38;;;;;;;11.13;10.63;;;;;;;;;;5115093;28;20463;-62
2023/09/26 02:57:03;;;;;;;11.10;10.60;;;;;;;;;;5116123;27;20027;-62
2023/09/26 02:59:29;;;;;;;11.25;10.75;;;;;;;;;;5106156;27;20011;-62
2023/09/26 03:01:54;;;;;;;11.10;10.60;;;;;;;;;;5105238;28;20027;-62
2023/09/26 03:04:20;;;;;;;11.63;11.13;;;;;;;;;;5107190;27;20074;-62
2023/09/26 03:06:45;;;;;;;11.43;10.93;;;;;;;;;;5103068;27;20420;-62
2023/09/26 03:09:10;;;;;;;12.07;11.48;;;;;;;;;;5102488;28;20031;-64
2023/09/26 03:11:36;;;;;;;11.20;10.70;;;;;;;;;;5106430;27;20028;-64
2023/09/26 03:14:01;;;;;;;12.10;11.50;;;;;;;;;;5107470;27;20016;-63
2023/09/26 03:16:26;;;;;;;10.65;10.15;;;;;;;;;;5105344;27;20118;-64
2023/09/26 03:18:55;;;;;;;11.25;10.75;;;;;;;;;;5103898;28;20030;-63
2023/09/26 03:21:21;;;;;;;11.23;10.73;;;;;;;;;;5105661;27;20023;-64
2023/09/26 03:23:47;;;;;;;11.88;11.27;;;;;;;;;;5101784;27;20109;-62
2023/09/26 03:26:15;;;;;;;10.88;10.38;;;;;;;;;;5107070;27;20114;-62
2023/09/26 03:28:40;;;;;;;11.60;11.10;;;;;;;;;;5103049;28;20031;-62
2023/09/26 03:31:06;;;;;;;11.05;10.55;;;;;;;;;;5103813;28;20024;-62
2023/09/26 03:33:34;;;;;;;10.93;10.43;;;;;;;;;;5104297;27;20024;-62
2023/09/26 03:36:00;;;;;;;11.35;10.85;;;;;;;;;;5085464;28;20027;-62
2023/09/26 03:38:26;;;;;;;11.25;10.75;;;;;;;;;;5103492;27;20105;-62
2023/09/26 03:41:01;;;;;;;11.13;10.63;;;;;;;;;;5101426;27;20103;-62
2023/09/26 03:43:27;;;;;;;11.48;10.98;;;;;;;;;;5103832;27;20376;-62
2023/09/26 03:45:53;;;;;;;11.15;10.65;;;;;;;;;;5101664;28;20099;-62
2023/09/26 03:48:19;;;;;;;11.40;10.90;;;;;;;;;;5104139;28;20029;-62
2023/09/26 03:50:46;;;;;;;12.45;11.85;;;;;;;;;;5101104;28;20106;-62
2023/09/26 03:53:12;;;;;;;12.00;11.40;;;;;;;;;;5106748;27;20023;-62
2023/09/26 03:55:38;;;;;;;11.00;10.50;;;;;;;;;;5101145;28;20023;-62
2023/09/26 03:58:03;;;;;;;11.07;10.57;;;;;;;;;;5108476;27;20760;-62
2023/09/26 04:00:29;;;;;;;11.90;11.30;;;;;;;;;;5100255;28;20035;-62
2023/09/26 04:02:56;;;;;;;11.02;10.52;;;;;;;;;;5106007;27;20110;-62
2023/09/26 04:05:21;;;;;;;11.75;11.15;;;;;;;;;;5103177;27;20059;-62
2023/09/26 04:07:47;;;;;;;11.20;10.70;;;;;;;;;;5106857;27;20019;-62
2023/09/26 04:10:13;;;;;;;11.30;10.80;;;;;;;;;;5106736;27;20043;-62
2023/09/26 04:12:38;;;;;;;10.75;10.25;;;;;;;;;;5102803;28;20088;-62
2023/09/26 04:15:05;;;;;;;11.40;10.90;;;;;;;;;;5092925;28;20081;-63
2023/09/26 04:17:30;;;;;;;11.88;11.27;;;;;;;;;;5104141;27;20050;-62
2023/09/26 04:19:55;;;;;;;12.40;11.80;;;;;;;;;;5103472;28;20474;-62
2023/09/26 04:22:21;;;;;;;11.77;11.23;;;;;;;;;;5102710;27;20055;-63
2023/09/26 04:24:46;;;;;;;11.60;11.10;;;;;;;;;;5108562;27;20027;-64
2023/09/26 04:27:11;;;;;;;11.43;10.93;;;;;;;;;;5098706;28;20035;-63
2023/09/26 04:29:37;;;;;;;11.95;11.38;;;;;;;;;;5104614;28;20031;-62
2023/09/26 04:32:02;;;;;;;11.40;10.90;;;;;;;;;;5099153;28;20023;-62
2023/09/26 04:34:29;;;;;;;11.35;10.85;;;;;;;;;;5088814;28;20015;-64
2023/09/26 04:36:54;;;;;;;11.70;11.20;;;;;;;;;;5107093;28;20020;-64
2023/09/26 04:39:19;;;;;;;12.65;12.05;;;;;;;;;;5103919;28;20042;-63
2023/09/26 04:41:45;;;;;;;11.50;11.00;;;;;;;;;;5104102;28;20016;-63
2023/09/26 04:44:11;;;;;;;12.00;11.50;;;;;;;;;;5098949;28;20471;-62
2023/09/26 04:46:36;;;;;;;12.60;12.00;;;;;;;;;;5097876;28;20016;-63
2023/09/26 04:49:01;;;;;;;11.90;11.40;;;;;;;;;;5099314;28;20034;-62
2023/09/26 04:51:28;;;;;;;12.38;11.77;;;;;;;;;;5102097;28;20102;-62
2023/09/26 04:53:53;;;;;;;11.85;11.35;;;;;;;;;;5103661;28;20143;-63
2023/09/26 04:56:19;;;;;;;11.27;10.77;;;;;;;;;;5102282;28;20143;-63
2023/09/26 04:58:44;;;;;;;12.05;11.55;;;;;;;;;;5101577;28;20024;-64
2023/09/26 05:01:14;;;;;;;11.50;11.00;;;;;;;;;;5102958;28;20034;-64
2023/09/26 05:03:40;;;;;;;11.52;11.02;;;;;;;;;;5106003;28;20040;-63
2023/09/26 05:06:06;;;;;;;11.55;11.05;;;;;;;;;;5100738;28;20470;-64
2023/09/26 05:08:32;;;;;;;11.40;10.90;;;;;;;;;;5102295;28;20050;-63
2023/09/26 05:10:57;;;;;;;11.68;11.18;;;;;;;;;;5101409;28;20009;-64
2023/09/26 05:13:22;;;;;;;11.73;11.23;;;;;;;;;;5098339;28;20488;-64
2023/09/26 05:15:48;;;;;;;11.93;11.43;;;;;;;;;;5102718;28;20058;-65
2023/09/26 05:18:13;;;;;;;11.95;11.45;;;;;;;;;;5103805;28;20019;-63
2023/09/26 05:20:39;;;;;;;11.65;11.15;;;;;;;;;;5098074;28;20047;-63
2023/09/26 05:23:04;;;;;;;12.20;11.70;;;;;;;;;;5103347;28;20031;-64
2023/09/26 05:25:32;;;;;;;12.07;11.57;;;;;;;;;;5110290;28;20050;-63
2023/09/26 05:27:57;;;;;;;12.10;11.60;;;;;;;;;;5108655;28;20648;-63
2023/09/26 05:30:23;;;;;;;12.02;11.52;;;;;;;;;;5109626;28;20035;-62
2023/09/26 05:32:48;;;;;;;11.85;11.35;;;;;;;;;;5103634;28;20022;-64
2023/09/26 05:35:13;;;;;;;12.20;11.70;;;;;;;;;;5084874;28;20027;-63
2023/09/26 05:37:39;;;;;;;11.85;11.35;;;;;;;;;;5101178;28;20020;-63
2023/09/26 05:40:06;;;;;;;11.90;11.40;;;;;;;;;;5103210;28;20050;-63
2023/09/26 05:42:32;;;;;;;12.05;11.55;;;;;;;;;;5107057;28;20032;-63
2023/09/26 05:44:57;;;;;;;12.05;11.55;;;;;;;;;;5109463;28;20031;-64
2023/09/26 05:47:23;;;;;;;12.38;11.88;;;;;;;;;;5101540;28;20028;-64
2023/09/26 05:49:51;;;;;;;11.90;11.40;;;;;;;;;;5070646;28;20081;-63
2023/09/26 05:52:17;;;;;;;12.23;11.73;;;;;;;;;;5104726;28;20019;-63
2023/09/26 05:54:43;;;;;;;12.05;11.55;;;;;;;;;;5106486;28;20022;-63
2023/09/26 05:57:08;;;;;;;12.02;11.52;;;;;;;;;;5106885;27;20028;-62
2023/09/26 05:59:35;;;;;;;12.00;11.50;;;;;;;;;;5105916;27;20035;-63
2023/09/26 06:02:00;;;;;;;12.10;11.60;;;;;;;;;;5101514;27;20012;-63
2023/09/26 06:04:25;;;;;;;12.20;11.70;;;;;;;;;;5095585;28;20060;-65
2023/09/26 06:06:51;;;;;;;12.23;11.73;;;;;;;;;;5089411;28;20405;-64
2023/09/26 06:09:16;;;;;;;12.05;11.55;;;;;;;;;;5090899;28;20039;-64
2023/09/26 06:11:41;;;;;;;12.10;11.60;;;;;;;;;;5080150;28;20382;-63
2023/09/26 06:14:07;;;;;;;12.23;11.73;;;;;;;;;;5078781;28;20290;-63
2023/09/26 06:16:32;;;;;;;12.38;11.88;;;;;;;;;;5080781;28;20024;-64
2023/09/26 06:18:57;;;;;;;12.10;11.60;;;;;;;;;;5081062;28;20020;-63
2023/09/26 06:21:23;;;;;;;12.60;12.00;;;;;;;;;;5084454;28;20045;-63
2023/09/26 06:23:48;;;;;;;11.75;11.25;;;;;;;;;;5080366;28;20518;-63
2023/09/26 06:26:14;;;;;;;12.27;11.77;;;;;;;;;;5080790;28;20025;-63
2023/09/26 06:28:39;;;;;;;12.30;11.80;;;;;;;;;;5081417;28;20017;-64
2023/09/26 06:31:05;;;;;;;11.85;11.35;;;;;;;;;;5080908;28;20526;-63
2023/09/26 06:33:30;;;;;;;12.50;11.90;;;;;;;;;;5079798;28;20035;-63
2023/09/26 06:35:56;;;;;;;12.20;11.70;;;;;;;;;;5081646;28;20024;-64
2023/09/26 06:38:21;;;;;;;12.47;11.90;;;;;;;;;;5076115;28;20052;-63
2023/09/26 06:40:46;;;;;;;12.25;11.75;;;;;;;;;;5089074;28;20250;-64
2023/09/26 06:43:12;;;;;;;12.60;12.00;;;;;;;;;;5084742;28;20107;-63
2023/09/26 06:45:38;;;;;;;12.32;11.82;;;;;;;;;;5081611;28;20031;-63
2023/09/26 06:48:04;;;;;;;12.25;11.75;;;;;;;;;;5084844;28;20027;-64
2023/09/26 06:50:29;;;;;;;12.43;11.90;;;;;;;;;;5054231;28;20020;-64
2023/09/26 06:52:55;;;;;;;12.77;12.17;;;;;;;;;;5081797;28;20051;-64
2023/09/26 06:55:20;;;;;;;12.40;11.90;;;;;;;;;;5081840;28;20072;-64
2023/09/26 06:57:45;;;;;;;12.27;11.77;;;;;;;;;;5077722;28;20452;-64
2023/09/26 07:00:16;;;;;;;12.43;11.90;;;;;;;;;;5086403;28;20399;-66
2023/09/26 07:02:42;;;;;;;12.50;11.90;;;;;;;;;;5087746;28;20265;-65
2023/09/26 07:05:11;;;;;;;12.43;11.88;;;;;;;;;;5105785;27;20316;-64
2023/09/26 07:07:37;;;;;;;11.93;11.43;;;;;;;;;;5106687;27;20375;-64
2023/09/26 07:10:02;;;;;;;12.30;11.80;;;;;;;;;;5108525;27;20072;-63
2023/09/26 07:12:28;;;;;;;12.30;11.80;;;;;;;;;;5105323;27;20318;-63
2023/09/26 07:14:55;;;;;;;12.70;12.10;;;;;;;;;;5103537;27;20364;-62
2023/09/26 07:17:20;;;;;;;12.18;11.68;;;;;;;;;;5103611;27;20785;-63
2023/09/26 07:19:46;;;;;;;12.30;11.80;;;;;;;;;;5100623;27;20023;-63
2023/09/26 07:22:12;;;;;;;12.10;11.60;;;;;;;;;;5107491;27;20015;-64
2023/09/26 07:24:37;;;;;;;12.23;11.73;;;;;;;;;;5107818;27;20130;-64
2023/09/26 07:27:02;;;;;;;12.07;11.57;;;;;;;;;;5094097;28;20028;-64
2023/09/26 07:29:28;;;;;;;11.90;11.40;;;;;;;;;;5096686;27;20027;-64
2023/09/26 07:31:54;;;;;;;11.90;11.40;;;;;;;;;;5098567;27;20064;-64
2023/09/26 07:34:20;;;;;;;12.02;11.52;;;;;;;;;;5103473;27;20264;-63
2023/09/26 07:36:46;;;;;;;12.18;11.68;;;;;;;;;;5103324;27;20016;-64
2023/09/26 07:39:14;;;;;;;12.07;11.57;;;;;;;;;;5104005;27;20015;-63
2023/09/26 07:41:41;;;;;;;11.98;11.48;;;;;;;;;;5100851;27;20024;-63
2023/09/26 07:44:06;;;;;;;11.90;11.40;;;;;;;;;;5108140;27;20060;-64
2023/09/26 07:46:32;;;;;;;11.87;11.37;;;;;;;;;;5104662;27;20023;-63
2023/09/26 07:48:57;;;;;;;12.07;11.57;;;;;;;;;;5101241;27;20063;-63
2023/09/26 07:51:22;;;;;;;12.10;11.60;;;;;;;;;;5107375;27;20071;-65
2023/09/26 07:53:48;;;;;;;12.27;11.77;;;;;;;;;;5112664;27;20302;-62
2023/09/26 07:56:13;;;;;;;12.00;11.50;;;;;;;;;;5106511;27;20758;-63
2023/09/26 07:58:39;;;;;;;11.82;11.32;;;;;;;;;;5107719;27;20268;-63
2023/09/26 08:01:07;;;;;;;12.20;11.70;;;;;;;;;;5104901;27;20559;-63
2023/09/26 08:03:34;;;;;;;11.95;11.45;;;;;;;;;;5097537;27;20054;-64
2023/09/26 08:06:00;;;;;;;12.00;11.50;;;;;;;;;;5085945;28;20107;-64
2023/09/26 08:08:26;;;;;;;11.90;11.40;;;;;;;;;;5078488;28;20055;-63
2023/09/26 08:10:51;;;;;;;11.98;11.48;;;;;;;;;;5077744;28;20032;-63
2023/09/26 08:13:16;;;;;;;11.93;11.43;;;;;;;;;;5073510;28;20514;-63
2023/09/26 08:15:41;;;;;;;11.90;11.40;;;;;;;;;;5076236;28;20161;-63
2023/09/26 08:18:07;;;;;;;11.98;11.48;;;;;;;;;;5078690;28;20257;-63
2023/09/26 08:20:32;;;;;;;12.13;11.63;;;;;;;;;;5073019;28;20110;-62
2023/09/26 08:22:57;;;;;;;11.90;11.40;;;;;;;;;;5081492;28;20081;-62
2023/09/26 08:25:23;;;;;;;12.10;11.60;;;;;;;;;;5080352;28;20048;-63
2023/09/26 08:27:48;;;;;;;12.20;11.70;;;;;;;;;;5078733;28;21171;-66
2023/09/26 08:30:14;;;;;;;12.40;11.90;;;;;;;;;;5075292;28;20031;-65
2023/09/26 08:32:40;;;;;;;12.20;11.70;;;;;;;;;;5078483;28;20280;-63
2023/09/26 08:35:06;;;;;;;12.23;11.73;;;;;;;;;;5076468;28;20127;-64
2023/09/26 08:37:33;;;;;;;12.60;12.00;;;;;;;;;;5082625;28;20158;-66
2023/09/26 08:39:59;;;;;;;12.82;12.23;;;;;;;;;;5063547;28;20093;-65
2023/09/26 08:42:28;;;;;;;12.43;11.90;;;;;;;;;;5077807;28;20070;-65
2023/09/26 08:44:54;;;;;;;12.57;11.98;;;;;;;;;;5076332;28;20032;-63
2023/09/26 08:47:22;;;;;;;12.95;12.35;;;;;;;;;;5076565;28;20387;-65
2023/09/26 08:49:47;;;;;;;12.70;12.10;;;;;;;;;;5076164;28;20052;-65
2023/09/26 08:52:13;;;;;;;12.60;12.00;;;;;;;;;;5079823;28;20040;-68
2023/09/26 08:54:39;;;;;;;12.20;11.70;;;;;;;;;;5081052;28;20100;-65
2023/09/26 08:57:05;;;;;;;12.05;11.55;;;;;;;;;;5082436;28;20020;-68
2023/09/26 08:59:31;;;;;;;12.68;12.07;;;;;;;;;;5079182;28;20031;-68
2023/09/26 09:01:56;;;;;;;12.50;11.90;;;;;;;;;;5083708;28;20032;-65
2023/09/26 09:04:23;;;;;;;12.60;12.00;;;;;;;;;;5079422;28;20052;-62
2023/09/26 09:06:59;;;;;;;12.70;12.10;;;;;;;;;;5063741;28;20352;-61
2023/09/26 09:09:24;;;;;;;12.13;11.63;;;;;;;;;;5059578;28;20080;-62
2023/09/26 09:11:49;;;;;;;12.57;11.97;;;;;;;;;;5079154;28;20029;-61
2023/09/26 09:14:29;;;;;;;13.07;12.48;;;;;;;;;;5081809;28;20745;-60
2023/09/26 09:16:55;;;;;;;13.00;12.40;;;;;;;;;;5081231;28;20104;-61
2023/09/26 09:19:20;;;;;;;12.70;12.10;;;;;;;;;;5082951;28;20114;-62
2023/09/26 09:21:46;;;;;;;12.60;12.00;;;;;;;;;;5079481;28;20085;-62
2023/09/26 09:24:12;;;;;;;12.23;11.73;;;;;;;;;;5077714;28;20648;-61
2023/09/26 09:26:37;;;;;;;12.32;11.77;;;;;;;;;;5083578;28;20620;-61
2023/09/26 09:29:23;;;;;;;12.32;11.82;;;;;;;;;;5079718;28;20396;-62
2023/09/26 09:31:48;;;;;;;13.00;12.40;;;;;;;;;;5080388;28;20267;-64
2023/09/26 09:34:18;;;;;;;12.90;12.30;;;;;;;;;;5069850;28;20024;-64
2023/09/26 09:36:44;;;;;;;12.65;12.05;;;;;;;;;;5083955;28;20012;-64
2023/09/26 09:39:09;;;;;;;12.45;11.90;;;;;;;;;;5064238;28;20035;-64
2023/09/26 09:41:38;;;;;;;12.80;12.20;;;;;;;;;;5082771;28;20484;-64
2023/09/26 09:44:04;;;;;;;12.70;12.10;;;;;;;;;;5079177;28;20165;-66
2023/09/26 09:46:32;;;;;;;12.82;12.23;;;;;;;;;;5087324;28;20028;-64
2023/09/26 09:49:01;;;;;;;12.88;12.27;;;;;;;;;;5082294;28;20182;-64
2023/09/26 09:51:26;;;;;;;12.80;12.20;;;;;;;;;;5081518;28;20152;-64
2023/09/26 09:53:56;;;;;;;12.55;11.95;;;;;;;;;;5068230;28;20118;-63
2023/09/26 09:56:24;;;;;;;12.30;11.80;;;;;;;;;;5077543;28;20066;-64
2023/09/26 09:58:56;;;;;;;12.25;11.75;;;;;;;;;;5074200;28;20030;-64
2023/09/26 10:01:24;;;;;;;13.10;12.50;;;;;;;;;;5079614;28;20035;-63
2023/09/26 10:03:51;;;;;;;12.02;11.52;;;;;;;;;;5079687;28;20052;-64
2023/09/26 10:06:18;;;;;;;12.30;11.77;;;;;;;;;;5081895;28;20077;-64
2023/09/26 10:08:45;;;;;;;12.55;11.95;;;;;;;;;;5084433;28;20119;-64
2023/09/26 10:11:11;;;;;;;12.70;12.10;;;;;;;;;;5077318;28;20483;-65
2023/09/26 10:13:36;;;;;;;11.98;11.48;;;;;;;;;;5082631;28;20048;-66
2023/09/26 10:16:04;;;;;;;12.45;11.88;;;;;;;;;;5086528;28;20020;-64
2023/09/26 10:18:29;;;;;;;12.15;11.65;;;;;;;;;;5088819;28;20077;-64
2023/09/26 10:20:55;;;;;;;12.02;11.52;;;;;;;;;;5083706;28;20024;-64
2023/09/26 10:23:21;;;;;;;12.60;12.00;;;;;;;;;;5078197;28;20031;-65
2023/09/26 10:25:47;;;;;;;12.57;11.98;;;;;;;;;;5081271;28;20093;-66
2023/09/26 10:28:12;;;;;;;12.40;11.82;;;;;;;;;;5080506;28;20432;-67
2023/09/26 10:30:44;;;;;;;11.98;11.48;;;;;;;;;;5076025;28;20051;-65
2023/09/26 10:33:10;;;;;;;12.75;12.15;;;;;;;;;;5076552;28;20053;-65
2023/09/26 10:35:41;;;;;;;11.95;11.45;;;;;;;;;;5081123;28;20024;-63
2023/09/26 10:38:09;;;;;;;12.23;11.73;;;;;;;;;;5082044;28;20066;-65
2023/09/26 10:40:35;;;;;;;12.45;11.88;;;;;;;;;;5079793;28;20114;-64
2023/09/26 10:43:02;;;;;;;12.50;11.90;;;;;;;;;;5080668;28;20514;-65
2023/09/26 10:45:27;;;;;;;12.10;11.60;;;;;;;;;;5077065;28;20515;-66
2023/09/26 10:47:53;;;;;;;12.80;12.20;;;;;;;;;;5083681;28;20035;-64
2023/09/26 10:50:20;;;;;;;13.95;13.35;;;;;;;;;;5070358;28;20016;-64
2023/09/26 10:52:49;;;;;;;12.80;12.20;;;;;;;;;;5083390;28;20568;-64
2023/09/26 10:55:19;;;;;;;12.02;11.52;;;;;;;;;;5083966;28;20015;-64
2023/09/26 10:57:45;;;;;;;11.70;11.20;;;;;;;;;;5067983;28;20035;-64
2023/09/26 11:00:11;;;;;;;12.07;11.57;;;;;;;;;;5074478;28;20410;-63
2023/09/26 11:02:36;;;;;;;12.20;11.70;;;;;;;;;;5080774;28;20028;-63
2023/09/26 11:05:08;;;;;;;11.95;11.45;;;;;;;;;;5084297;28;20046;-62
2023/09/26 11:07:34;;;;;;;11.90;11.40;;;;;;;;;;5086709;28;20050;-62
2023/09/26 11:09:59;;;;;;;11.65;11.15;;;;;;;;;;5084109;28;20475;-63
2023/09/26 11:12:24;;;;;;;12.48;11.88;;;;;;;;;;5084289;28;20024;-63
2023/09/26 11:14:54;;;;;;;12.05;11.55;;;;;;;;;;5089564;28;20564;-62
2023/09/26 11:17:19;;;;;;;12.00;11.50;;;;;;;;;;5085211;28;20484;-62
2023/09/26 11:19:44;;;;;;;11.85;11.35;;;;;;;;;;5078850;28;20024;-63
2023/09/26 11:22:09;;;;;;;12.23;11.73;;;;;;;;;;5085081;28;21553;-61
2023/09/26 11:24:35;;;;;;;13.43;12.83;;;;;;;;;;5080553;28;20569;-65
2023/09/26 11:27:02;;;;;;;12.30;11.80;;;;;;;;;;5068661;28;20264;-63
2023/09/26 11:29:27;;;;;;;12.50;11.90;;;;;;;;;;5076253;28;20132;-63
2023/09/26 11:31:53;;;;;;;12.70;12.10;;;;;;;;;;5075981;28;20111;-62
2023/09/26 11:34:21;;;;;;;12.95;12.35;;;;;;;;;;5079392;28;20115;-62
2023/09/26 11:36:50;;;;;;;12.65;12.05;;;;;;;;;;5082389;28;20024;-61
2023/09/26 11:39:22;;;;;;;12.50;11.90;;;;;;;;;;5080793;28;20720;-62
2023/09/26 11:42:00;;;;;;;12.43;11.90;;;;;;;;;;5079736;28;20073;-61
2023/09/26 11:44:26;;;;;;;12.68;12.07;;;;;;;;;;5083235;28;20070;-63
2023/09/26 11:46:51;;;;;;;13.23;12.63;;;;;;;;;;5077013;28;20048;-63
2023/09/26 11:49:17;;;;;;;12.25;11.75;;;;;;;;;;5075973;28;20341;-63
2023/09/26 11:51:42;;;;;;;12.27;11.77;;;;;;;;;;5077368;28;20060;-62
2023/09/26 11:54:08;;;;;;;12.57;11.98;;;;;;;;;;5078423;28;20013;-64
2023/09/26 11:56:34;;;;;;;12.93;12.32;;;;;;;;;;5079097;28;20438;-61
2023/09/26 11:59:00;;;;;;;11.98;11.48;;;;;;;;;;5079742;28;20061;-63
2023/09/26 12:01:25;;;;;;;12.30;11.77;;;;;;;;;;5076980;28;20535;-62
2023/09/26 12:03:51;;;;;;;12.23;11.73;;;;;;;;;;5078426;28;20148;-61
2023/09/26 12:06:16;;;;;;;12.65;12.05;;;;;;;;;;5077184;28;20048;-63
2023/09/26 12:08:43;;;;;;;12.10;11.60;;;;;;;;;;5058861;28;20027;-64
2023/09/26 12:11:09;;;;;;;12.68;12.07;;;;;;;;;;5076672;28;20020;-63
2023/09/26 12:13:34;;;;;;;12.23;11.73;;;;;;;;;;5075340;28;20024;-65
2023/09/26 12:15:59;;;;;;;12.20;11.70;;;;;;;;;;5079317;28;20055;-64
2023/09/26 12:18:25;;;;;;;12.40;11.88;;;;;;;;;;5083394;28;20063;-64
2023/09/26 12:20:55;;;;;;;12.48;11.90;;;;;;;;;;5081697;28;20111;-64
2023/09/26 12:23:21;;;;;;;12.65;12.05;;;;;;;;;;5081477;28;20071;-62
2023/09/26 12:25:47;;;;;;;12.70;12.10;;;;;;;;;;5083867;28;20103;-63
2023/09/26 12:28:12;;;;;;;12.50;11.90;;;;;;;;;;5077800;28;20570;-61
2023/09/26 12:30:38;;;;;;;12.43;11.85;;;;;;;;;;5077741;28;20513;-63
2023/09/26 12:33:03;;;;;;;12.57;11.98;;;;;;;;;;5080113;28;20128;-62
2023/09/26 12:35:28;;;;;;;12.27;11.77;;;;;;;;;;5077098;28;20028;-62
2023/09/26 12:37:54;;;;;;;12.63;12.02;;;;;;;;;;5061090;28;20032;-62
2023/09/26 12:40:19;;;;;;;12.23;11.73;;;;;;;;;;5086084;28;20031;-62
2023/09/26 12:42:45;;;;;;;12.10;11.60;;;;;;;;;;5091066;28;20027;-62
2023/09/26 12:45:10;;;;;;;12.32;11.80;;;;;;;;;;5081226;28;20019;-63
2023/09/26 12:47:36;;;;;;;12.18;11.68;;;;;;;;;;5075259;28;20036;-64
2023/09/26 12:50:05;;;;;;;12.68;12.07;;;;;;;;;;5076282;28;20021;-64
2023/09/26 12:52:31;;;;;;;12.48;11.88;;;;;;;;;;5084467;28;20016;-63
2023/09/26 12:54:56;;;;;;;12.60;12.00;;;;;;;;;;5082034;28;20043;-64
2023/09/26 12:57:23;;;;;;;11.88;11.38;;;;;;;;;;5075601;28;20098;-64
2023/09/26 12:59:49;;;;;;;12.40;11.90;;;;;;;;;;5074289;28;20020;-64
2023/09/26 13:02:15;;;;;;;12.25;11.75;;;;;;;;;;5075149;28;20032;-63
2023/09/26 13:04:40;;;;;;;12.27;11.77;;;;;;;;;;5079156;28;20405;-65
2023/09/26 13:07:06;;;;;;;12.18;11.68;;;;;;;;;;5065673;28;20071;-66
2023/09/26 13:09:33;;;;;;;11.80;11.30;;;;;;;;;;5079411;28;20024;-65
2023/09/26 13:11:58;;;;;;;11.88;11.38;;;;;;;;;;5084705;28;20041;-65
2023/09/26 13:14:24;;;;;;;12.10;11.60;;;;;;;;;;5081840;28;21495;-65
2023/09/26 13:16:50;;;;;;;12.52;11.93;;;;;;;;;;5082364;28;20020;-63
2023/09/26 13:19:15;;;;;;;12.50;11.90;;;;;;;;;;5079497;28;20059;-64
2023/09/26 13:21:40;;;;;;;13.23;12.63;;;;;;;;;;5069409;28;20051;-62
2023/09/26 13:24:06;;;;;;;12.15;11.65;;;;;;;;;;5083574;28;20031;-61
2023/09/26 13:26:31;;;;;;;12.07;11.57;;;;;;;;;;5086160;28;20487;-62
2023/09/26 13:28:56;;;;;;;12.10;11.60;;;;;;;;;;5084910;28;20024;-61
2023/09/26 13:31:22;;;;;;;11.60;11.10;;;;;;;;;;5090400;28;20031;-62
2023/09/26 13:33:47;;;;;;;11.75;11.25;;;;;;;;;;5080363;28;20028;-62
2023/09/26 13:36:12;;;;;;;13.02;12.43;;;;;;;;;;5086332;28;20017;-62
2023/09/26 13:38:38;;;;;;;11.73;11.23;;;;;;;;;;5074608;28;20553;-62
2023/09/26 13:41:05;;;;;;;12.13;11.63;;;;;;;;;;5083687;28;20035;-61
2023/09/26 13:43:32;;;;;;;11.60;11.10;;;;;;;;;;5080713;28;20082;-62
2023/09/26 13:45:57;;;;;;;12.07;11.57;;;;;;;;;;5089178;28;20031;-62
2023/09/26 13:48:23;;;;;;;11.80;11.30;;;;;;;;;;5083697;28;20020;-61
2023/09/26 13:50:48;;;;;;;12.05;11.55;;;;;;;;;;5084770;28;20032;-61
2023/09/26 13:53:13;;;;;;;11.85;11.35;;;;;;;;;;5088292;28;20058;-61
2023/09/26 13:55:38;;;;;;;12.13;11.63;;;;;;;;;;5088181;28;20077;-63
2023/09/26 13:58:04;;;;;;;11.70;11.20;;;;;;;;;;5088445;28;20459;-62
2023/09/26 14:00:29;;;;;;;11.48;10.98;;;;;;;;;;5078693;28;20257;-62
2023/09/26 14:02:54;;;;;;;12.88;12.27;;;;;;;;;;5074341;28;20120;-62
2023/09/26 14:05:20;;;;;;;11.70;11.20;;;;;;;;;;5083048;28;20410;-62
2023/09/26 14:07:46;;;;;;;11.90;11.40;;;;;;;;;;5080570;28;20434;-62
2023/09/26 14:10:12;;;;;;;11.88;11.38;;;;;;;;;;5064822;28;20016;-63